createdAt,value
2019-03-01T00:00:56.673Z,26.70
2019-03-01T00:03:26.112Z,32.03
2019-03-01T00:06:06.759Z,24.57
2019-03-01T00:09:44.189Z,25.80
2019-03-01T00:12:28.868Z,25.07
2019-03-01T00:15:08.400Z,25.90
2019-03-01T00:17:59.993Z,23.93
2019-03-01T00:20:46.849Z,26.93
2019-03-01T00:23:40.551Z,27.13
2019-03-01T00:26:39.290Z,28.47
2019-03-01T00:29:20.999Z,26.53
2019-03-01T00:32:02.178Z,31.60
2019-03-01T00:34:41.188Z,28.47
2019-03-01T00:37:21.507Z,30.57
2019-03-01T00:41:07.064Z,27.10
2019-03-01T00:44:48.837Z,30.37
2019-03-01T00:47:17.383Z,31.20
2019-03-01T00:49:46.710Z,30.80
2019-03-01T00:52:17.147Z,32.10
2019-03-01T00:54:45.924Z,27.60
2019-03-01T00:57:14.736Z,27.97
2019-03-01T00:59:44.128Z,29.10
2019-03-01T01:02:14.249Z,29.07
2019-03-01T01:04:44.131Z,30.67
2019-03-01T01:07:12.911Z,30.07
2019-03-01T01:09:42.339Z,26.67
2019-03-01T01:12:12.058Z,28.50
2019-03-01T01:14:41.901Z,29.97
2019-03-01T01:17:11.706Z,28.20
2019-03-01T01:19:40.504Z,27.30
2019-03-01T01:22:09.275Z,25.70
2019-03-01T01:24:38.108Z,24.83
2019-03-01T01:27:07.700Z,26.20
2019-03-01T01:29:36.507Z,26.27
2019-03-01T01:32:05.292Z,28.30
2019-03-01T01:34:34.132Z,27.53
2019-03-01T01:37:02.939Z,26.77
2019-03-01T01:39:31.764Z,26.57
2019-03-01T01:42:00.582Z,24.60
2019-03-01T01:44:29.392Z,27.70
2019-03-01T01:46:58.210Z,25.63
2019-03-01T01:49:27.055Z,28.77
2019-03-01T01:51:55.838Z,26.80
2019-03-01T01:54:25.183Z,28.43
2019-03-01T01:56:53.950Z,27.10
2019-03-01T01:59:22.755Z,26.23
2019-03-01T02:01:51.546Z,25.87
2019-03-01T02:04:21.067Z,25.83
2019-03-01T02:06:49.869Z,25.80
2019-03-01T02:09:20.742Z,25.83
2019-03-01T02:11:50.358Z,29.83
2019-03-01T02:14:20.107Z,29.93
2019-03-01T02:16:50.591Z,29.10
2019-03-01T02:19:20.368Z,31.13
2019-03-01T02:21:50.735Z,27.00
2019-03-01T02:24:19.528Z,30.00
2019-03-01T02:26:48.803Z,30.73
2019-03-01T02:29:17.591Z,27.90
2019-03-01T02:31:52.612Z,29.00
2019-03-01T02:34:21.402Z,29.97
2019-03-01T02:36:50.189Z,29.73
2019-03-01T02:39:19.047Z,29.83
2019-03-01T02:41:47.819Z,28.93
2019-03-01T02:44:18.760Z,30.07
2019-03-01T02:46:48.181Z,30.00
2019-03-01T02:49:17.860Z,33.80
2019-03-01T02:51:50.472Z,34.20
2019-03-01T02:54:20.143Z,34.47
2019-03-01T02:56:48.918Z,35.40
2019-03-01T02:59:17.711Z,38.10
2019-03-01T03:01:46.537Z,40.40
2019-03-01T03:04:16.513Z,41.53
2019-03-01T03:06:53.902Z,48.87
2019-03-01T03:09:23.493Z,53.27
2019-03-01T03:11:52.287Z,54.73
2019-03-01T03:14:21.135Z,57.97
2019-03-01T03:16:49.934Z,58.83
2019-03-01T03:19:18.800Z,62.20
2019-03-01T03:21:47.627Z,60.07
2019-03-01T03:24:17.663Z,65.87
2019-03-01T03:26:48.490Z,60.23
2019-03-01T03:29:15.246Z,64.37
2019-03-01T03:31:45.120Z,74.43
2019-03-01T03:34:14.100Z,74.50
2019-03-01T03:36:42.887Z,78.03
2019-03-01T03:39:12.199Z,75.63
2019-03-01T03:41:41.010Z,80.67
2019-03-01T03:44:11.106Z,75.77
2019-03-01T03:46:39.872Z,73.80
2019-03-01T03:49:08.683Z,80.13
2019-03-01T03:51:37.488Z,76.37
2019-03-01T03:54:06.308Z,84.43
2019-03-01T03:56:35.655Z,83.10
2019-03-01T03:59:05.568Z,85.10
2019-03-01T04:01:34.404Z,82.70
2019-03-01T04:04:03.203Z,88.37
2019-03-01T04:06:32.839Z,89.43
2019-03-01T04:09:03.386Z,107.60
2019-03-01T04:11:32.174Z,94.07
2019-03-01T04:14:00.979Z,89.33
2019-03-01T04:16:29.843Z,92.30
2019-03-01T04:18:59.297Z,94.27
2019-03-01T04:21:28.356Z,93.53
2019-03-01T04:24:04.162Z,93.53
2019-03-01T04:26:33.033Z,93.27
2019-03-01T04:29:02.303Z,92.80
2019-03-01T04:31:31.934Z,97.20
2019-03-01T04:34:01.467Z,103.00
2019-03-01T04:36:30.964Z,101.23
2019-03-01T04:39:00.500Z,96.97
2019-03-01T04:41:30.238Z,94.87
2019-03-01T04:43:59.041Z,103.33
2019-03-01T04:46:27.902Z,102.23
2019-03-01T04:48:58.142Z,111.13
2019-03-01T04:51:27.608Z,102.27
2019-03-01T04:53:56.420Z,94.47
2019-03-01T04:56:25.840Z,92.10
2019-03-01T04:58:54.653Z,91.70
2019-03-01T05:01:23.500Z,85.33
2019-03-01T05:03:53.451Z,78.97
2019-03-01T05:06:22.245Z,77.97
2019-03-01T05:08:51.044Z,77.73
2019-03-01T05:11:21.111Z,73.67
2019-03-01T05:13:51.967Z,75.83
2019-03-01T05:16:21.763Z,76.20
2019-03-01T05:18:50.989Z,75.17
2019-03-01T05:21:19.786Z,71.67
2019-03-01T05:23:49.207Z,66.17
2019-03-01T05:26:17.997Z,68.13
2019-03-01T05:28:46.811Z,64.43
2019-03-01T05:31:15.604Z,64.80
2019-03-01T05:33:44.456Z,62.33
2019-03-01T05:36:15.291Z,57.87
2019-03-01T05:38:44.728Z,63.13
2019-03-01T05:41:13.520Z,62.30
2019-03-01T05:43:42.909Z,63.30
2019-03-01T05:46:11.703Z,62.17
2019-03-01T05:48:40.528Z,61.53
2019-03-01T05:51:09.392Z,59.10
2019-03-01T05:53:38.684Z,57.57
2019-03-01T05:56:07.574Z,60.37
2019-03-01T05:58:43.216Z,60.67
2019-03-01T06:01:30.006Z,63.27
2019-03-01T06:04:05.176Z,58.80
2019-03-01T06:06:48.800Z,67.20
2019-03-01T06:09:31.385Z,64.67
2019-03-01T06:12:15.135Z,62.93
2019-03-01T06:14:56.610Z,62.60
2019-03-01T06:19:39.735Z,65.20
2019-03-01T06:22:24.340Z,63.43
2019-03-01T06:25:18.712Z,62.00
2019-03-01T06:28:13.897Z,69.80
2019-03-01T06:30:52.105Z,65.03
2019-03-01T06:33:59.176Z,69.20
2019-03-01T06:36:36.477Z,68.77
2019-03-01T06:39:32.373Z,71.27
2019-03-01T06:43:12.120Z,65.00
2019-03-01T06:46:10.946Z,67.80
2019-03-01T06:48:43.901Z,68.77
2019-03-01T06:51:18.056Z,67.00
2019-03-01T06:53:46.929Z,70.20
2019-03-01T06:56:15.717Z,66.67
2019-03-01T06:58:48.413Z,66.70
2019-03-01T07:01:18.435Z,68.23
2019-03-01T07:03:51.400Z,68.07
2019-03-01T07:06:23.920Z,74.60
2019-03-01T07:08:52.715Z,72.67
2019-03-01T07:11:21.525Z,72.33
2019-03-01T07:13:50.320Z,79.20
2019-03-01T07:16:19.306Z,76.90
2019-03-01T07:18:48.159Z,74.63
2019-03-01T07:21:16.974Z,80.90
2019-03-01T07:23:46.253Z,80.67
2019-03-01T07:26:15.644Z,86.63
2019-03-01T07:28:44.418Z,87.47
2019-03-01T07:31:13.866Z,85.63
2019-03-01T07:33:42.678Z,84.00
2019-03-01T07:36:11.522Z,87.70
2019-03-01T07:38:40.274Z,82.93
2019-03-01T07:41:09.189Z,79.97
2019-03-01T07:43:38.012Z,80.87
2019-03-01T07:46:06.827Z,78.50
2019-03-01T07:48:35.624Z,83.97
2019-03-01T07:51:04.427Z,75.80
2019-03-01T07:53:35.678Z,79.90
2019-03-01T07:56:03.987Z,79.63
2019-03-01T07:58:31.465Z,67.87
2019-03-01T08:01:00.268Z,74.23
2019-03-01T08:03:29.665Z,75.03
2019-03-01T08:05:59.324Z,71.63
2019-03-01T08:08:28.115Z,70.53
2019-03-01T08:10:57.414Z,71.20
2019-03-01T08:13:26.766Z,73.90
2019-03-01T08:15:56.162Z,62.10
2019-03-01T08:18:25.055Z,64.00
2019-03-01T08:20:53.852Z,71.43
2019-03-01T08:23:22.632Z,67.97
2019-03-01T08:25:52.051Z,72.50
2019-03-01T08:28:23.045Z,64.57
2019-03-01T08:30:50.893Z,67.03
2019-03-01T08:33:20.546Z,70.37
2019-03-01T08:35:49.356Z,68.20
2019-03-01T08:38:19.159Z,62.27
2019-03-01T08:40:49.863Z,63.33
2019-03-01T08:43:18.459Z,65.53
2019-03-01T08:45:47.305Z,65.73
2019-03-01T08:48:16.102Z,65.33
2019-03-01T08:50:45.081Z,62.43
2019-03-01T08:53:15.148Z,65.27
2019-03-01T08:55:43.348Z,59.63
2019-03-01T08:58:12.617Z,55.57
2019-03-01T09:00:41.526Z,44.30
2019-03-01T09:03:22.229Z,45.07
2019-03-01T09:05:45.522Z,39.03
2019-03-01T09:08:14.324Z,32.80
2019-03-01T09:10:43.187Z,30.07
2019-03-01T09:13:12.499Z,27.87
2019-03-01T09:15:41.305Z,27.27
2019-03-01T09:18:11.601Z,26.63
2019-03-01T09:20:38.910Z,24.73
2019-03-01T09:23:20.843Z,27.77
2019-03-01T09:25:36.571Z,26.07
2019-03-01T09:28:05.369Z,24.83
2019-03-01T09:30:34.155Z,24.80
2019-03-01T09:33:02.938Z,25.10
2019-03-01T09:35:43.158Z,22.60
2019-03-01T09:38:12.862Z,23.20
2019-03-01T09:40:43.179Z,19.13
2019-03-01T09:43:12.546Z,19.27
2019-03-01T09:45:41.371Z,18.80
2019-03-01T09:48:12.140Z,18.23
2019-03-01T09:50:39.008Z,17.50
2019-03-01T09:53:07.808Z,17.33
2019-03-01T09:55:37.696Z,16.33
2019-03-01T09:58:05.422Z,14.80
2019-03-01T10:00:34.551Z,13.70
2019-03-01T10:03:03.336Z,16.43
2019-03-01T10:05:32.746Z,15.47
2019-03-01T10:08:01.556Z,13.50
2019-03-01T10:10:30.346Z,10.50
2019-03-01T10:12:59.123Z,11.03
2019-03-01T10:15:27.907Z,10.53
2019-03-01T10:17:56.800Z,9.57
2019-03-01T10:20:26.142Z,9.63
2019-03-01T10:22:54.377Z,9.77
2019-03-01T10:25:24.994Z,10.20
2019-03-01T10:27:54.323Z,9.60
2019-03-01T10:30:23.629Z,8.53
2019-03-01T10:32:52.435Z,9.43
2019-03-01T10:35:21.211Z,8.53
2019-03-01T10:37:50.011Z,8.53
2019-03-01T10:40:19.266Z,8.43
2019-03-01T10:42:48.049Z,7.73
2019-03-01T10:45:18.843Z,7.97
2019-03-01T10:47:47.684Z,8.27
2019-03-01T10:50:17.566Z,7.80
2019-03-01T10:52:46.358Z,9.30
2019-03-01T10:55:17.312Z,8.40
2019-03-01T10:57:46.114Z,9.83
2019-03-01T11:00:19.614Z,8.83
2019-03-01T11:02:48.816Z,9.70
2019-03-01T11:05:18.666Z,8.97
2019-03-01T11:07:48.122Z,9.17
2019-03-01T11:10:19.262Z,9.53
2019-03-01T11:12:48.052Z,8.57
2019-03-01T11:15:17.540Z,8.60
2019-03-01T11:17:46.433Z,8.40
2019-03-01T11:20:16.427Z,9.03
2019-03-01T11:22:45.928Z,9.20
2019-03-01T11:25:15.173Z,10.47
2019-03-01T11:27:43.967Z,10.13
2019-03-01T11:30:17.150Z,8.97
2019-03-01T11:32:46.048Z,10.43
2019-03-01T11:35:15.776Z,9.80
2019-03-01T11:37:45.136Z,10.97
2019-03-01T11:40:19.698Z,11.07
2019-03-01T11:42:49.717Z,10.53
2019-03-01T11:45:18.535Z,9.83
2019-03-01T11:47:47.315Z,9.67
2019-03-01T11:50:18.004Z,10.53
2019-03-01T11:52:46.926Z,11.27
2019-03-01T11:55:15.820Z,11.47
2019-03-01T11:57:44.622Z,12.40
2019-03-01T12:00:16.331Z,12.60
2019-03-01T12:02:45.175Z,11.67
2019-03-01T12:05:14.526Z,12.33
2019-03-01T12:07:43.308Z,10.70
2019-03-01T12:10:13.931Z,11.97
2019-03-01T12:12:42.740Z,11.67
2019-03-01T12:15:12.560Z,10.83
2019-03-01T12:17:41.352Z,11.50
2019-03-01T12:20:11.980Z,10.73
2019-03-01T12:22:40.837Z,9.33
2019-03-01T12:25:10.510Z,9.07
2019-03-01T12:27:38.995Z,9.20
2019-03-01T12:30:10.908Z,8.20
2019-03-01T12:32:39.796Z,7.97
2019-03-01T12:35:09.903Z,7.40
2019-03-01T12:37:39.347Z,7.27
2019-03-01T12:40:10.602Z,6.40
2019-03-01T12:42:39.551Z,6.97
2019-03-01T12:45:09.249Z,6.90
2019-03-01T12:47:38.048Z,6.57
2019-03-01T12:50:07.943Z,5.80
2019-03-01T12:52:36.787Z,6.87
2019-03-01T12:55:06.589Z,6.50
2019-03-01T12:57:35.424Z,5.57
2019-03-01T13:00:06.627Z,5.60
2019-03-01T13:02:35.410Z,4.43
2019-03-01T13:05:04.970Z,5.27
2019-03-01T13:07:33.826Z,3.40
2019-03-01T13:10:06.089Z,2.87
2019-03-01T13:12:31.446Z,3.00
2019-03-01T13:15:01.151Z,2.40
2019-03-01T13:17:29.901Z,2.20
2019-03-01T13:20:01.194Z,2.27
2019-03-01T13:22:27.998Z,1.70
2019-03-01T13:24:56.406Z,2.13
2019-03-01T13:27:26.107Z,2.23
2019-03-01T13:29:55.313Z,1.87
2019-03-01T13:32:24.084Z,2.67
2019-03-01T13:34:52.966Z,2.13
2019-03-01T13:37:21.748Z,2.20
2019-03-01T13:39:51.251Z,1.60
2019-03-01T13:42:22.026Z,2.07
2019-03-01T13:44:51.452Z,1.80
2019-03-01T13:47:20.768Z,1.97
2019-03-01T13:49:49.612Z,2.23
2019-03-01T13:52:18.400Z,2.07
2019-03-01T13:54:47.196Z,2.30
2019-03-01T13:57:16.891Z,2.17
2019-03-01T13:59:45.675Z,1.90
2019-03-01T14:02:15.088Z,1.93
2019-03-01T14:04:43.908Z,2.47
2019-03-01T14:07:12.718Z,2.03
2019-03-01T14:09:41.528Z,2.80
2019-03-01T14:12:10.328Z,2.27
2019-03-01T14:14:39.232Z,1.60
2019-03-01T14:17:08.087Z,1.87
2019-03-01T14:19:39.010Z,2.47
2019-03-01T14:22:10.326Z,2.20
2019-03-01T14:24:35.652Z,2.30
2019-03-01T14:27:04.460Z,2.03
2019-03-01T14:29:34.758Z,2.03
2019-03-01T14:32:02.351Z,1.50
2019-03-01T14:34:34.004Z,2.07
2019-03-01T14:37:02.860Z,1.60
2019-03-01T14:39:31.598Z,1.90
2019-03-01T14:42:00.409Z,1.97
2019-03-01T14:44:30.697Z,1.97
2019-03-01T14:46:57.979Z,2.67
2019-03-01T14:49:27.866Z,4.10
2019-03-01T14:51:56.660Z,2.27
2019-03-01T14:54:25.446Z,1.77
2019-03-01T14:56:59.003Z,1.67
2019-03-01T14:59:38.505Z,2.10
2019-03-01T15:02:14.678Z,1.87
2019-03-01T15:04:44.566Z,1.57
2019-03-01T15:07:13.442Z,1.63
2019-03-01T15:09:42.731Z,1.50
2019-03-01T15:12:11.491Z,2.37
2019-03-01T15:14:40.339Z,1.67
2019-03-01T15:17:09.143Z,3.63
2019-03-01T15:19:37.945Z,1.90
2019-03-01T15:22:09.723Z,1.90
2019-03-01T15:24:37.106Z,1.50
2019-03-01T15:27:05.980Z,1.70
2019-03-01T15:29:34.817Z,1.90
2019-03-01T15:32:03.587Z,2.00
2019-03-01T15:34:32.377Z,2.27
2019-03-01T15:37:02.964Z,1.60
2019-03-01T15:39:31.779Z,2.00
2019-03-01T15:42:00.602Z,1.97
2019-03-01T15:44:29.403Z,2.00
2019-03-01T15:46:58.218Z,2.40
2019-03-01T15:49:27.621Z,2.13
2019-03-01T15:51:56.440Z,3.13
2019-03-01T15:54:26.552Z,2.57
2019-03-01T15:56:55.387Z,2.70
2019-03-01T15:59:24.207Z,2.70
2019-03-01T16:01:53.168Z,3.03
2019-03-01T16:04:21.951Z,2.27
2019-03-01T16:06:55.044Z,2.20
2019-03-01T16:09:21.795Z,2.40
2019-03-01T16:11:48.928Z,1.87
2019-03-01T16:14:20.937Z,2.33
2019-03-01T16:16:48.994Z,3.87
2019-03-01T16:19:16.040Z,1.90
2019-03-01T16:21:44.818Z,2.60
2019-03-01T16:24:13.605Z,2.30
2019-03-01T16:26:42.389Z,2.90
2019-03-01T16:29:11.157Z,3.20
2019-03-01T16:31:39.936Z,3.27
2019-03-01T16:34:09.333Z,3.03
2019-03-01T16:36:41.355Z,2.90
2019-03-01T16:39:12.736Z,2.90
2019-03-01T16:41:42.879Z,2.70
2019-03-01T16:44:10.435Z,7.10
2019-03-01T16:46:39.226Z,3.70
2019-03-01T16:49:09.639Z,3.40
2019-03-01T16:51:38.547Z,3.13
2019-03-01T16:54:07.413Z,3.40
2019-03-01T16:56:38.437Z,3.40
2019-03-01T16:59:07.136Z,2.80
2019-03-01T17:01:40.638Z,3.30
2019-03-01T17:04:08.189Z,4.00
2019-03-01T17:06:37.006Z,3.63
2019-03-01T17:09:07.477Z,3.23
2019-03-01T17:11:37.723Z,3.97
2019-03-01T17:14:05.786Z,3.87
2019-03-01T17:16:35.773Z,4.43
2019-03-01T17:19:05.225Z,4.73
2019-03-01T17:21:34.200Z,5.20
2019-03-01T17:24:03.050Z,4.97
2019-03-01T17:26:32.493Z,5.33
2019-03-01T17:29:03.192Z,5.17
2019-03-01T17:31:30.115Z,4.33
2019-03-01T17:33:58.897Z,4.60
2019-03-01T17:36:27.724Z,5.70
2019-03-01T17:38:56.507Z,4.83
2019-03-01T17:41:26.394Z,4.73
2019-03-01T17:43:57.914Z,4.53
2019-03-01T17:46:29.763Z,4.83
2019-03-01T17:48:57.349Z,4.57
2019-03-01T17:51:24.287Z,4.77
2019-03-01T17:53:53.084Z,6.10
2019-03-01T17:56:22.630Z,6.43
2019-03-01T17:58:50.687Z,5.40
2019-03-01T18:01:19.463Z,6.00
2019-03-01T18:03:48.318Z,5.73
2019-03-01T18:06:17.919Z,5.17
2019-03-01T18:08:46.816Z,5.53
2019-03-01T18:11:15.630Z,4.80
2019-03-01T18:13:45.546Z,5.30
2019-03-01T18:16:14.354Z,5.13
2019-03-01T18:18:48.946Z,5.63
2019-03-01T18:21:13.152Z,5.37
2019-03-01T18:23:41.655Z,5.07
2019-03-01T18:26:10.454Z,5.47
2019-03-01T18:28:39.335Z,5.10
2019-03-01T18:31:08.107Z,5.90
2019-03-01T18:33:36.911Z,5.10
2019-03-01T18:36:08.164Z,4.70
2019-03-01T18:38:35.555Z,5.77
2019-03-01T18:41:04.425Z,5.67
2019-03-01T18:43:33.931Z,5.03
2019-03-01T18:46:02.704Z,6.27
2019-03-01T18:48:33.497Z,4.83
2019-03-01T18:51:03.540Z,5.47
2019-03-01T18:53:29.729Z,4.53
2019-03-01T18:55:58.039Z,5.07
2019-03-01T18:58:26.882Z,4.27
2019-03-01T19:00:55.659Z,5.30
2019-03-01T19:03:24.507Z,3.90
2019-03-01T19:05:53.361Z,4.73
2019-03-01T19:08:22.165Z,4.20
2019-03-01T19:10:54.186Z,4.97
2019-03-01T19:13:20.890Z,5.33
2019-03-01T19:15:54.437Z,4.67
2019-03-01T19:18:18.664Z,5.20
2019-03-01T19:20:47.836Z,4.80
2019-03-01T19:23:16.623Z,5.37
2019-03-01T19:25:45.471Z,6.87
2019-03-01T19:28:14.609Z,7.00
2019-03-01T19:30:45.878Z,7.10
2019-03-01T19:33:13.007Z,6.90
2019-03-01T19:35:41.844Z,5.67
2019-03-01T19:38:11.361Z,6.40
2019-03-01T19:40:43.473Z,6.97
2019-03-01T19:43:10.285Z,6.70
2019-03-01T19:45:40.750Z,6.60
2019-03-01T19:48:07.333Z,6.77
2019-03-01T19:50:36.168Z,5.90
2019-03-01T19:53:11.818Z,7.90
2019-03-01T19:55:40.608Z,9.37
2019-03-01T19:58:11.914Z,8.93
2019-03-01T20:00:39.163Z,10.50
2019-03-01T20:03:10.068Z,10.73
2019-03-01T20:05:35.864Z,11.10
2019-03-01T20:08:06.011Z,10.90
2019-03-01T20:10:36.807Z,11.20
2019-03-01T20:13:03.661Z,11.17
2019-03-01T20:15:32.467Z,10.50
2019-03-01T20:18:02.772Z,10.07
2019-03-01T20:20:33.528Z,11.03
2019-03-01T20:23:01.417Z,11.33
2019-03-01T20:25:30.211Z,10.10
2019-03-01T20:27:59.094Z,10.50
2019-03-01T20:30:30.103Z,12.10
2019-03-01T20:32:57.349Z,12.07
2019-03-01T20:35:26.264Z,11.95
2019-03-01T20:37:54.920Z,10.00
2019-03-01T20:40:26.721Z,8.63
2019-03-01T20:42:55.750Z,8.17
2019-03-01T20:45:26.013Z,8.90
2019-03-01T20:47:54.568Z,9.37
2019-03-01T20:50:23.239Z,9.77
2019-03-01T20:52:52.054Z,7.80
2019-03-01T20:55:20.866Z,7.37
2019-03-01T20:57:50.347Z,6.90
2019-03-01T21:00:19.229Z,8.10
2019-03-01T21:02:50.251Z,6.80
2019-03-01T21:05:17.107Z,7.83
2019-03-01T21:07:48.244Z,7.87
2019-03-01T21:10:18.111Z,7.50
2019-03-01T21:12:46.967Z,7.90
2019-03-01T21:15:16.019Z,6.57
2019-03-01T21:17:44.831Z,6.27
2019-03-01T21:20:15.961Z,6.30
2019-03-01T21:22:43.215Z,5.93
2019-03-01T21:25:13.411Z,5.40
2019-03-01T21:27:42.258Z,5.43
2019-03-01T21:30:15.813Z,5.13
2019-03-01T21:32:47.004Z,5.37
2019-03-01T21:35:16.689Z,4.97
2019-03-01T21:37:43.313Z,4.87
2019-03-01T21:40:12.320Z,6.07
2019-03-01T21:42:41.055Z,5.63
2019-03-01T21:45:11.514Z,5.70
2019-03-01T21:47:40.275Z,6.57
2019-03-01T21:50:10.888Z,6.43
2019-03-01T21:52:40.603Z,5.73
2019-03-01T21:55:11.443Z,5.20
2019-03-01T21:57:40.227Z,6.50
2019-03-01T22:00:13.326Z,6.97
2019-03-01T22:02:43.944Z,6.63
2019-03-01T22:05:13.591Z,4.93
2019-03-01T22:07:41.618Z,5.23
2019-03-01T22:10:11.739Z,5.07
2019-03-01T22:12:40.570Z,5.13
2019-03-01T22:15:21.637Z,6.07
2019-03-01T22:17:48.720Z,4.53
2019-03-01T22:20:16.528Z,4.80
2019-03-01T22:22:46.458Z,4.60
2019-03-01T22:25:15.315Z,5.27
2019-03-01T22:27:44.108Z,3.73
2019-03-01T22:30:15.257Z,4.00
2019-03-01T22:32:45.495Z,3.70
2019-03-01T22:35:12.826Z,3.03
2019-03-01T22:37:41.599Z,3.00
2019-03-01T22:40:10.729Z,2.57
2019-03-01T22:42:39.527Z,2.80
2019-03-01T22:45:13.314Z,2.67
2019-03-01T22:47:39.155Z,2.67
2019-03-01T22:50:09.041Z,2.80
2019-03-01T22:52:37.815Z,2.90
2019-03-01T22:55:07.530Z,2.70
2019-03-01T22:57:36.330Z,2.60
2019-03-01T23:00:07.381Z,2.50
2019-03-01T23:02:36.190Z,2.43
2019-03-01T23:05:05.234Z,3.00
2019-03-01T23:07:34.067Z,2.90
2019-03-01T23:10:03.016Z,3.03
2019-03-01T23:12:31.801Z,2.80
2019-03-01T23:15:02.928Z,2.57
2019-03-01T23:17:30.449Z,2.47
2019-03-01T23:19:58.172Z,2.43
2019-03-01T23:22:26.952Z,2.43
2019-03-01T23:24:57.503Z,2.27
2019-03-01T23:27:28.477Z,2.83
2019-03-01T23:29:55.218Z,2.70
2019-03-01T23:32:24.468Z,3.07
2019-03-01T23:34:53.322Z,2.50
2019-03-01T23:37:22.123Z,2.70
2019-03-01T23:39:51.218Z,2.70
2019-03-01T23:42:20.779Z,3.10
2019-03-01T23:44:49.937Z,3.20
2019-03-01T23:47:18.704Z,3.10
2019-03-01T23:49:47.503Z,3.13
2019-03-01T23:52:16.292Z,3.57
2019-03-01T23:54:45.769Z,3.77
2019-03-01T23:57:14.371Z,3.90
2019-03-01T23:59:43.782Z,3.47
